Time;durP1;ratioP1;P1;durP2;ratioP2;P2;SDS_P1;SDS_P2;PMS_P1;PMS_P2;Temp;Humidity;BMP_temperature;BMP_pressure;BME280_temperature;BME280_humidity;BME280_pressure;Samples;Min_cycle;Max_cycle;Signal;HPM_P1;HPM_P2
2023/06/22 00:00:52;;;;;;;5.00;3.03;;;;;;;18.66;74.51;101776.59;4992948;28;20454;-66
2023/06/22 00:03:18;;;;;;;5.65;2.38;;;;;;;18.63;74.62;101776.88;5007177;28;20025;-66
2023/06/22 00:05:48;;;;;;;4.50;2.70;;;;;;;18.58;73.98;101770.91;4996976;28;20042;-65
2023/06/22 00:08:14;;;;;;;8.57;3.60;;;;;;;18.54;74.78;101772.19;4987203;28;20065;-66
2023/06/22 00:10:40;;;;;;;10.50;2.95;;;;;;;18.48;75.85;101768.13;5002810;28;20125;-66
2023/06/22 00:13:06;;;;;;;5.30;3.30;;;;;;;18.44;75.90;101760.28;4986617;28;20511;-66
2023/06/22 00:15:32;;;;;;;4.55;2.50;;;;;;;18.41;75.81;101766.94;4987165;28;20038;-67
2023/06/22 00:17:58;;;;;;;9.35;2.92;;;;;;;18.38;75.15;101774.63;5002451;28;20525;-66
2023/06/22 00:20:27;;;;;;;9.30;3.08;;;;;;;18.34;75.51;101761.13;4987389;28;20165;-66
2023/06/22 00:22:53;;;;;;;6.07;2.90;;;;;;;18.27;75.88;101765.41;4987111;28;20054;-68
2023/06/22 00:25:19;;;;;;;6.13;2.60;;;;;;;18.21;76.36;101770.63;4987240;28;20406;-65
2023/06/22 00:27:44;;;;;;;3.92;2.83;;;;;;;18.18;75.72;101763.50;5002590;28;20049;-66
2023/06/22 00:30:10;;;;;;;5.57;2.90;;;;;;;18.14;75.71;101766.66;5006132;28;20129;-69
2023/06/22 00:32:35;;;;;;;8.88;3.10;;;;;;;18.11;75.75;101770.59;5002665;28;20073;-67
2023/06/22 00:35:01;;;;;;;6.03;3.53;;;;;;;18.08;75.94;101768.97;5025968;28;20515;-66
2023/06/22 00:37:29;;;;;;;8.65;3.17;;;;;;;18.04;76.15;101772.13;5010162;28;20052;-67
2023/06/22 00:39:55;;;;;;;5.70;2.83;;;;;;;17.99;76.19;101766.16;5005306;28;20474;-66
2023/06/22 00:42:21;;;;;;;6.43;3.40;;;;;;;17.92;76.42;101760.34;5005323;28;20034;-66
2023/06/22 00:44:46;;;;;;;5.88;4.13;;;;;;;17.83;76.97;101758.41;4990138;28;20478;-66
2023/06/22 00:47:16;;;;;;;6.13;3.78;;;;;;;17.73;77.63;101760.19;5006072;28;20437;-66
2023/06/22 00:49:42;;;;;;;7.63;3.67;;;;;;;17.68;77.48;101754.22;4990004;28;20088;-66
2023/06/22 00:52:09;;;;;;;6.95;3.55;;;;;;;17.63;78.02;101757.38;4990727;28;20030;-67
2023/06/22 00:54:37;;;;;;;4.95;3.80;;;;;;;17.61;77.93;101762.13;4988552;28;20077;-67
2023/06/22 00:57:03;;;;;;;6.43;3.70;;;;;;;17.59;77.56;101759.53;4999037;28;20052;-66
2023/06/22 00:59:28;;;;;;;10.05;3.72;;;;;;;17.57;77.83;101763.41;5008278;28;20037;-67
2023/06/22 01:01:54;;;;;;;6.57;4.10;;;;;;;17.51;78.92;101759.31;5007490;28;20095;-66
2023/06/22 01:04:33;;;;;;;7.78;4.57;;;;;;;17.39;78.69;101760.38;5008930;28;20021;-67
2023/06/22 01:07:10;;;;;;;8.00;5.32;;;;;;;17.34;78.67;101747.00;4997671;28;20435;-67
2023/06/22 01:10:05;;;;;;;8.45;5.22;;;;;;;17.34;77.98;101737.91;5007943;28;20048;-66
2023/06/22 01:12:34;;;;;;;9.05;4.80;;;;;;;17.37;78.32;101745.88;4992217;28;20058;-66
2023/06/22 01:15:07;;;;;;;6.20;3.88;;;;;;;17.38;78.35;101747.63;4990446;28;20405;-67
2023/06/22 01:17:33;;;;;;;8.63;4.30;;;;;;;17.30;79.94;101747.44;4990843;28;20956;-66
2023/06/22 01:20:00;;;;;;;6.88;4.53;;;;;;;17.28;79.79;101747.56;4988730;28;20027;-66
2023/06/22 01:22:30;;;;;;;9.07;4.80;;;;;;;17.24;80.14;101746.06;4987544;28;20137;-67
2023/06/22 01:25:13;;;;;;;9.93;4.95;;;;;;;17.25;78.96;101756.09;4988852;28;20509;-67
2023/06/22 01:28:01;;;;;;;7.05;4.57;;;;;;;17.25;79.32;101755.19;4990047;28;20038;-67
2023/06/22 01:30:29;;;;;;;11.00;4.65;;;;;;;17.22;79.88;101753.59;5004832;28;20490;-67
2023/06/22 01:32:57;;;;;;;7.57;4.82;;;;;;;17.24;79.68;101754.31;5004934;28;20030;-67
2023/06/22 01:35:25;;;;;;;7.68;4.38;;;;;;;17.22;80.69;101758.22;4989965;28;20034;-68
2023/06/22 01:37:51;;;;;;;7.78;4.30;;;;;;;17.23;80.11;101754.47;4988811;28;20093;-67
2023/06/22 01:40:19;;;;;;;8.10;4.05;;;;;;;17.22;80.37;101750.84;4989701;28;20033;-66
2023/06/22 01:42:45;;;;;;;10.50;4.47;;;;;;;17.20;81.36;101751.97;4988607;28;20391;-66
2023/06/22 01:45:11;;;;;;;9.82;4.32;;;;;;;17.18;81.58;101754.00;4990999;28;20041;-69
2023/06/22 01:47:38;;;;;;;8.75;5.80;;;;;;;17.15;81.72;101749.63;5009110;28;20030;-66
2023/06/22 01:50:05;;;;;;;10.15;5.90;;;;;;;17.17;81.06;101746.75;5007644;28;20351;-66
2023/06/22 01:52:33;;;;;;;6.82;5.18;;;;;;;17.18;80.98;101746.59;5007433;28;20096;-67
2023/06/22 01:54:59;;;;;;;8.80;4.57;;;;;;;17.19;80.93;101741.97;4990521;28;20073;-66
2023/06/22 01:57:26;;;;;;;9.88;5.50;;;;;;;17.20;81.30;101740.97;4989152;28;20038;-66
2023/06/22 02:00:10;;;;;;;6.55;5.03;;;;;;;17.20;81.22;101746.47;5003496;28;20455;-66
2023/06/22 02:02:56;;;;;;;9.45;5.25;;;;;;;17.20;81.33;101746.47;4990265;28;20354;-66
2023/06/22 02:05:24;;;;;;;10.48;5.03;;;;;;;17.18;81.82;101743.00;4989190;28;20052;-66
2023/06/22 02:08:05;;;;;;;6.88;5.03;;;;;;;17.19;82.21;101739.22;4989179;28;20112;-66
2023/06/22 02:10:31;;;;;;;8.48;5.22;;;;;;;17.16;83.50;101737.63;4989596;28;20105;-66
2023/06/22 02:12:58;;;;;;;7.85;5.78;;;;;;;17.17;82.49;101735.75;5018241;28;20036;-67
2023/06/22 02:15:25;;;;;;;10.98;6.40;;;;;;;17.16;82.94;101736.72;5005565;28;20096;-66
2023/06/22 02:17:53;;;;;;;12.50;6.28;;;;;;;17.17;81.36;101731.13;5003784;28;20137;-67
2023/06/22 02:20:19;;;;;;;10.88;6.60;;;;;;;17.16;82.11;101733.97;4989140;28;20121;-66
2023/06/22 02:22:44;;;;;;;10.75;6.60;;;;;;;17.16;82.20;101737.63;5004301;28;20046;-67
2023/06/22 02:25:10;;;;;;;9.48;6.20;;;;;;;17.16;81.88;101736.72;4989702;28;20019;-66
2023/06/22 02:27:35;;;;;;;9.95;6.60;;;;;;;17.13;83.03;101742.50;5000746;28;20069;-67
2023/06/22 02:30:01;;;;;;;9.80;6.10;;;;;;;17.10;83.77;101738.13;5008535;28;20032;-67
2023/06/22 02:32:26;;;;;;;10.40;5.82;;;;;;;17.06;83.78;101731.16;4990374;28;20084;-67
2023/06/22 02:34:52;;;;;;;11.77;5.75;;;;;;;17.02;84.04;101715.91;5003818;28;20490;-67
2023/06/22 02:37:18;;;;;;;11.65;6.95;;;;;;;16.97;84.09;101718.19;4988701;28;20050;-68
2023/06/22 02:39:43;;;;;;;11.95;6.90;;;;;;;16.95;83.80;101718.34;5003370;28;20034;-66
2023/06/22 02:42:10;;;;;;;9.10;6.75;;;;;;;16.93;83.64;101723.09;4997864;28;20123;-66
2023/06/22 02:44:36;;;;;;;12.50;6.57;;;;;;;16.92;83.29;101723.22;5007297;28;20048;-69
2023/06/22 02:47:03;;;;;;;14.25;8.98;;;;;;;16.91;83.50;101715.97;5005833;28;20439;-67
2023/06/22 02:49:28;;;;;;;13.60;8.20;;;;;;;16.89;83.96;101713.38;5005911;28;20120;-66
2023/06/22 02:51:55;;;;;;;11.38;7.43;;;;;;;16.91;83.81;101713.22;4996843;28;20125;-67
2023/06/22 02:54:21;;;;;;;10.70;7.07;;;;;;;16.90;83.48;101709.63;5003201;28;20382;-66
2023/06/22 02:56:50;;;;;;;10.45;7.68;;;;;;;16.89;83.20;101713.38;5002194;28;20478;-67
2023/06/22 02:59:16;;;;;;;11.35;7.40;;;;;;;16.88;83.30;101707.97;5002921;28;20421;-66
2023/06/22 03:01:42;;;;;;;11.93;7.60;;;;;;;16.85;83.96;101716.50;5002870;28;20112;-69
2023/06/22 03:04:21;;;;;;;9.20;7.28;;;;;;;16.77;85.14;101700.66;5003054;28;20512;-66
2023/06/22 03:06:50;;;;;;;13.57;8.40;;;;;;;16.79;84.17;101704.16;4986494;28;20038;-66
2023/06/22 03:09:17;;;;;;;12.85;8.45;;;;;;;16.76;83.71;101688.81;4986518;28;20080;-66
2023/06/22 03:11:43;;;;;;;17.38;9.05;;;;;;;16.73;84.84;101686.31;4988171;28;20046;-70
2023/06/22 03:14:08;;;;;;;15.02;9.05;;;;;;;16.70;84.06;101692.03;5003151;28;20042;-67
2023/06/22 03:16:34;;;;;;;12.90;8.63;;;;;;;16.70;84.27;101688.44;5002513;28;20034;-68
2023/06/22 03:18:59;;;;;;;13.95;9.23;;;;;;;16.68;84.12;101688.53;5003088;28;20027;-67
2023/06/22 03:21:27;;;;;;;13.85;9.13;;;;;;;16.65;84.89;101690.69;5002388;28;20030;-67
2023/06/22 03:23:53;;;;;;;14.52;9.27;;;;;;;16.64;84.25;101683.44;4987968;28;20046;-67
2023/06/22 03:26:19;;;;;;;12.80;9.50;;;;;;;16.59;85.36;101676.44;4990374;28;20171;-67
2023/06/22 03:28:44;;;;;;;17.85;10.25;;;;;;;16.55;85.86;101677.75;5005594;28;20036;-66
2023/06/22 03:31:10;;;;;;;16.95;9.25;;;;;;;16.55;84.90;101674.09;4999426;28;20034;-67
2023/06/22 03:33:37;;;;;;;13.50;8.48;;;;;;;16.53;84.39;101670.63;5002711;28;20516;-67
2023/06/22 03:36:03;;;;;;;18.77;10.10;;;;;;;16.58;84.88;101679.34;5002637;28;20054;-66
2023/06/22 03:38:28;;;;;;;15.02;9.20;;;;;;;16.63;84.99;101682.56;5002763;28;20026;-67
2023/06/22 03:40:55;;;;;;;12.70;9.27;;;;;;;16.66;84.75;101684.19;5001963;28;20037;-68
2023/06/22 03:43:21;;;;;;;12.25;8.98;;;;;;;16.68;84.74;101671.19;5002278;28;20034;-67
2023/06/22 03:45:46;;;;;;;17.38;9.98;;;;;;;16.67;85.36;101677.69;4988175;28;20022;-66
2023/06/22 03:48:12;;;;;;;17.00;10.45;;;;;;;16.63;86.19;101677.06;5002229;28;20084;-70
2023/06/22 03:50:38;;;;;;;15.75;9.88;;;;;;;16.64;85.27;101672.44;4988071;28;20049;-66
2023/06/22 03:53:04;;;;;;;15.73;10.25;;;;;;;16.60;86.00;101666.38;4986876;28;20079;-66
2023/06/22 03:55:30;;;;;;;13.23;10.02;;;;;;;16.63;85.88;101666.09;4987843;28;20450;-66
2023/06/22 03:57:56;;;;;;;13.80;9.50;;;;;;;16.66;85.59;101665.84;4984382;28;20038;-67
2023/06/22 04:00:25;;;;;;;16.63;10.38;;;;;;;16.68;85.33;101666.56;4988456;28;20093;-67
2023/06/22 04:02:50;;;;;;;13.05;10.05;;;;;;;16.73;84.67;101655.22;4991653;28;20034;-67
2023/06/22 04:05:18;;;;;;;16.58;10.32;;;;;;;16.76;85.00;101668.69;4974167;28;20511;-66
2023/06/22 04:07:44;;;;;;;14.77;9.88;;;;;;;16.77;85.38;101662.19;5007524;28;20038;-68
2023/06/22 04:10:10;;;;;;;16.60;9.90;;;;;;;16.81;85.13;101667.28;5008403;28;20100;-66
2023/06/22 04:12:35;;;;;;;14.32;9.05;;;;;;;16.85;85.27;101656.91;4990363;28;20493;-67
2023/06/22 04:15:01;;;;;;;15.80;9.77;;;;;;;16.87;85.28;101662.28;4991254;28;20037;-66
2023/06/22 04:17:26;;;;;;;17.05;10.68;;;;;;;16.95;85.75;101666.09;4991886;28;20105;-67
2023/06/22 04:19:51;;;;;;;15.43;10.40;;;;;;;17.02;85.72;101660.94;4991505;28;20042;-67
2023/06/22 04:22:17;;;;;;;15.27;10.73;;;;;;;17.07;85.44;101656.81;4991314;28;20026;-66
2023/06/22 04:24:44;;;;;;;13.63;9.50;;;;;;;17.10;85.46;101666.66;4991583;28;20129;-70
2023/06/22 04:27:09;;;;;;;13.43;9.20;;;;;;;17.11;86.40;101660.13;4992033;28;20029;-67
2023/06/22 04:29:35;;;;;;;13.60;9.90;;;;;;;17.16;85.41;101676.22;4990592;28;20038;-67
2023/06/22 04:32:02;;;;;;;19.35;10.73;;;;;;;17.18;85.82;101682.50;4991762;28;20113;-67
2023/06/22 04:34:29;;;;;;;15.68;10.05;;;;;;;17.20;85.27;101672.22;4991058;28;20045;-68
2023/06/22 04:36:55;;;;;;;14.05;10.32;;;;;;;17.23;85.28;101674.72;5001608;28;20050;-67
2023/06/22 04:39:21;;;;;;;20.90;12.20;;;;;;;17.26;85.74;101678.06;5007891;28;20038;-66
2023/06/22 04:41:47;;;;;;;14.57;11.63;;;;;;;17.32;85.60;101680.28;5007324;28;20173;-67
2023/06/22 04:44:26;;;;;;;23.00;11.73;;;;;;;17.40;86.09;101676.00;5009278;28;20397;-67
2023/06/22 04:47:01;;;;;;;20.15;12.32;;;;;;;17.41;87.53;101674.97;5005900;28;20055;-66
2023/06/22 04:49:34;;;;;;;17.33;11.55;;;;;;;17.51;86.80;101678.66;5009866;28;20041;-66
2023/06/22 04:52:01;;;;;;;20.70;12.85;;;;;;;17.63;85.69;101673.97;5009340;28;20440;-67
2023/06/22 04:54:26;;;;;;;16.85;11.85;;;;;;;17.75;86.29;101682.00;5001346;28;20033;-67
2023/06/22 04:56:58;;;;;;;17.80;12.73;;;;;;;17.83;85.63;101673.94;5006172;28;20017;-65
2023/06/22 04:59:28;;;;;;;17.25;12.32;;;;;;;17.95;84.57;101669.22;5009216;28;20068;-66
2023/06/22 05:01:54;;;;;;;19.25;13.98;;;;;;;18.01;85.84;101676.91;5001023;28;20046;-67
2023/06/22 05:04:19;;;;;;;18.90;11.93;;;;;;;18.08;86.66;101679.97;5010089;28;20060;-67
2023/06/22 05:06:45;;;;;;;17.52;12.95;;;;;;;18.16;87.05;101680.16;5009539;28;20034;-67
2023/06/22 05:09:11;;;;;;;22.17;14.48;;;;;;;18.19;87.39;101670.75;5009384;28;20059;-68
2023/06/22 05:11:37;;;;;;;24.85;15.00;;;;;;;18.28;85.84;101670.78;5002105;28;20189;-67
2023/06/22 05:14:02;;;;;;;21.17;14.70;;;;;;;18.32;85.54;101672.19;4989084;28;20172;-68
2023/06/22 05:16:28;;;;;;;21.13;14.82;;;;;;;18.39;84.52;101675.28;4988545;28;20065;-67
2023/06/22 05:18:54;;;;;;;22.75;14.35;;;;;;;18.52;85.59;101664.88;4990132;28;20030;-66
2023/06/22 05:21:24;;;;;;;22.40;16.17;;;;;;;18.54;85.38;101664.72;5005811;28;20048;-66
2023/06/22 05:23:53;;;;;;;22.67;15.45;;;;;;;18.57;84.61;101664.44;5008995;28;20034;-67
2023/06/22 05:26:20;;;;;;;26.50;15.13;;;;;;;18.62;85.31;101662.13;4989620;28;20077;-66
2023/06/22 05:28:46;;;;;;;20.55;14.20;;;;;;;18.72;85.28;101665.78;4988206;28;20042;-66
2023/06/22 05:31:16;;;;;;;20.70;14.60;;;;;;;18.88;84.35;101676.22;4988528;28;20033;-67
2023/06/22 05:33:41;;;;;;;21.30;13.60;;;;;;;19.04;85.31;101668.25;4990405;28;20042;-66
2023/06/22 05:36:07;;;;;;;20.70;13.27;;;;;;;19.20;84.68;101659.38;4994213;28;21027;-68
2023/06/22 05:38:33;;;;;;;19.08;13.93;;;;;;;19.30;85.01;101662.13;5009188;28;20091;-68
2023/06/22 05:40:58;;;;;;;21.77;14.60;;;;;;;19.39;84.05;101661.22;5009262;28;20042;-67
2023/06/22 05:43:23;;;;;;;23.65;15.88;;;;;;;19.43;83.70;101664.56;4989010;28;20046;-67
2023/06/22 05:45:49;;;;;;;23.42;16.80;;;;;;;19.42;84.64;101654.56;4989580;28;20030;-67
2023/06/22 05:48:14;;;;;;;22.17;16.45;;;;;;;19.42;82.51;101654.56;4989735;28;20050;-66
2023/06/22 05:50:39;;;;;;;24.02;16.25;;;;;;;19.44;82.44;101658.88;4990272;28;20026;-67
2023/06/22 05:53:06;;;;;;;25.25;16.48;;;;;;;19.46;82.95;101664.28;4999374;28;20044;-67
2023/06/22 05:55:32;;;;;;;22.58;15.93;;;;;;;19.49;82.00;101659.34;5008642;28;20049;-67
2023/06/22 05:57:57;;;;;;;24.20;16.38;;;;;;;19.50;83.12;101669.34;4992705;28;20049;-66
2023/06/22 06:00:23;;;;;;;24.35;16.95;;;;;;;19.52;82.92;101664.53;5003865;28;20538;-67
2023/06/22 06:02:49;;;;;;;24.30;18.15;;;;;;;19.53;82.10;101659.88;5000209;28;20645;-67
2023/06/22 06:05:15;;;;;;;23.63;16.90;;;;;;;19.57;82.18;101659.44;4989227;28;20030;-67
2023/06/22 06:07:42;;;;;;;24.85;16.13;;;;;;;19.71;83.59;101666.41;4989805;28;20490;-66
2023/06/22 06:10:08;;;;;;;23.80;16.13;;;;;;;19.81;81.02;101658.06;4988052;28;20022;-67
2023/06/22 06:12:33;;;;;;;23.13;16.75;;;;;;;19.87;81.86;101654.72;4988645;28;20067;-67
2023/06/22 06:14:59;;;;;;;22.92;15.55;;;;;;;19.97;80.05;101657.44;4989337;28;20401;-67
2023/06/22 06:17:24;;;;;;;25.95;17.63;;;;;;;20.11;80.65;101652.28;4989410;28;20042;-67
2023/06/22 06:19:49;;;;;;;24.45;16.60;;;;;;;20.31;81.21;101641.97;4989658;28;20085;-66
2023/06/22 06:22:15;;;;;;;24.20;15.95;;;;;;;20.38;80.39;101645.88;5003922;28;20038;-66
2023/06/22 06:24:40;;;;;;;21.98;17.65;;;;;;;20.39;79.57;101650.38;4988402;28;20021;-67
2023/06/22 06:27:05;;;;;;;29.48;17.13;;;;;;;20.42;79.88;101642.78;4988687;28;20406;-67
2023/06/22 06:29:32;;;;;;;23.08;16.90;;;;;;;20.49;79.99;101653.09;4988516;28;20136;-66
2023/06/22 06:31:57;;;;;;;21.95;15.68;;;;;;;20.59;78.80;101656.66;4989087;28;20034;-69
2023/06/22 06:34:22;;;;;;;25.52;17.17;;;;;;;20.77;77.20;101658.56;4987516;28;20038;-68
2023/06/22 06:36:48;;;;;;;25.92;18.63;;;;;;;20.80;78.10;101649.97;4988871;28;20082;-67
2023/06/22 06:39:13;;;;;;;21.17;16.92;;;;;;;20.72;78.18;101649.88;5007824;28;20385;-67
2023/06/22 06:41:38;;;;;;;26.20;16.65;;;;;;;20.79;79.51;101646.31;5003363;28;20077;-67
2023/06/22 06:44:13;;;;;;;22.77;17.58;;;;;;;20.90;78.70;101650.75;5003078;28;20077;-66
2023/06/22 06:46:39;;;;;;;25.58;17.50;;;;;;;20.88;78.34;101650.88;4998851;28;20042;-67
2023/06/22 06:49:04;;;;;;;24.42;17.65;;;;;;;20.89;79.46;101644.34;5008389;28;20021;-67
2023/06/22 06:51:29;;;;;;;22.40;16.15;;;;;;;20.93;79.70;101652.31;5007563;28;20052;-67
2023/06/22 06:53:55;;;;;;;21.77;16.60;;;;;;;21.14;79.64;101650.94;5008184;28;20486;-67
2023/06/22 06:56:20;;;;;;;20.27;15.38;;;;;;;21.31;78.59;101657.53;4991905;28;20042;-66
2023/06/22 06:58:46;;;;;;;22.88;15.20;;;;;;;21.52;78.09;101651.59;5002710;28;20065;-66
2023/06/22 07:01:12;;;;;;;23.33;16.73;;;;;;;21.67;78.01;101654.63;4988617;28;20141;-66
2023/06/22 07:03:38;;;;;;;22.98;15.98;;;;;;;21.85;77.01;101652.66;4988966;28;20038;-67
2023/06/22 07:06:03;;;;;;;22.00;16.88;;;;;;;22.05;75.74;101652.41;4991057;28;20583;-67
2023/06/22 07:08:29;;;;;;;22.80;17.38;;;;;;;22.01;73.11;101643.59;4997878;28;20493;-66
2023/06/22 07:10:54;;;;;;;26.60;18.85;;;;;;;21.93;72.43;101653.75;4987883;28;20498;-67
2023/06/22 07:13:20;;;;;;;24.83;16.48;;;;;;;21.97;74.06;101650.50;4985912;28;20041;-68
2023/06/22 07:15:45;;;;;;;23.25;15.55;;;;;;;22.18;75.17;101644.53;4988213;28;20073;-67
2023/06/22 07:18:10;;;;;;;19.00;14.15;;;;;;;22.36;74.27;101647.19;4988647;28;20497;-66
2023/06/22 07:20:36;;;;;;;25.30;17.58;;;;;;;22.38;72.38;101645.13;5003091;28;20165;-67
2023/06/22 07:23:01;;;;;;;23.25;16.45;;;;;;;22.37;72.59;101637.84;5002575;28;20038;-67
2023/06/22 07:25:27;;;;;;;23.65;18.27;;;;;;;22.36;71.49;101636.97;4996983;28;20125;-68
2023/06/22 07:28:03;;;;;;;19.80;15.50;;;;;;;22.42;72.22;101635.41;5005771;28;20065;-65
2023/06/22 07:30:29;;;;;;;27.40;16.10;;;;;;;22.51;72.33;101636.31;5006747;28;20045;-68
2023/06/22 07:32:55;;;;;;;20.52;14.50;;;;;;;22.58;73.35;101635.47;5003084;28;20499;-66
2023/06/22 07:35:21;;;;;;;19.88;15.05;;;;;;;22.61;73.12;101637.88;4987895;28;20042;-66
2023/06/22 07:37:46;;;;;;;21.40;15.57;;;;;;;22.65;73.07;101638.41;4987180;28;20130;-67
2023/06/22 07:40:12;;;;;;;22.05;16.17;;;;;;;22.62;71.58;101633.22;4988613;28;20355;-68
2023/06/22 07:42:38;;;;;;;23.52;16.88;;;;;;;22.55;71.18;101627.47;4986855;28;20204;-67
2023/06/22 07:45:04;;;;;;;21.05;17.00;;;;;;;22.53;71.26;101626.81;5002091;28;20132;-66
2023/06/22 07:47:29;;;;;;;21.70;17.25;;;;;;;22.45;72.30;101618.47;5004143;28;20101;-66
2023/06/22 07:49:58;;;;;;;24.35;18.02;;;;;;;22.42;72.46;101604.91;5007367;28;20443;-67
2023/06/22 07:52:25;;;;;;;23.15;16.67;;;;;;;22.39;73.16;101608.06;5004926;28;20062;-67
2023/06/22 07:54:50;;;;;;;27.27;18.30;;;;;;;22.38;74.67;101601.66;4987405;28;20177;-67
2023/06/22 07:57:16;;;;;;;24.77;18.42;;;;;;;22.29;75.20;101599.00;4987158;28;20109;-67
2023/06/22 07:59:41;;;;;;;26.30;18.73;;;;;;;22.23;75.93;101592.22;4987325;28;20402;-66
2023/06/22 08:02:08;;;;;;;25.23;18.00;;;;;;;22.25;75.13;101583.75;4987389;28;20415;-67
2023/06/22 08:04:34;;;;;;;26.73;19.63;;;;;;;22.21;76.94;101572.13;5002549;28;20038;-67
2023/06/22 08:07:00;;;;;;;25.52;19.45;;;;;;;22.11;75.74;101563.97;4998207;28;20029;-67
2023/06/22 08:09:27;;;;;;;28.70;19.80;;;;;;;22.19;78.33;101553.94;5006550;28;20510;-66
2023/06/22 08:11:53;;;;;;;21.80;18.90;;;;;;;22.20;78.64;101556.53;4987366;28;20117;-67
2023/06/22 08:14:19;;;;;;;25.52;19.27;;;;;;;22.29;77.77;101551.84;4985685;28;20133;-68
2023/06/22 08:16:44;;;;;;;25.83;18.98;;;;;;;22.40;76.33;101557.97;4986983;28;20030;-67
2023/06/22 08:19:09;;;;;;;23.48;17.23;;;;;;;22.39;77.39;101547.06;4987861;28;20030;-66
2023/06/22 08:21:35;;;;;;;24.60;17.40;;;;;;;22.40;75.42;101548.78;4987407;28;20113;-67
2023/06/22 08:24:02;;;;;;;24.35;17.42;;;;;;;22.36;76.99;101534.38;4986200;28;20317;-67
2023/06/22 08:26:27;;;;;;;21.20;16.77;;;;;;;22.34;75.21;101543.94;4989198;28;20497;-67
2023/06/22 08:28:52;;;;;;;23.63;16.30;;;;;;;22.46;77.83;101539.75;5006692;28;20026;-68
2023/06/22 08:31:18;;;;;;;21.52;17.23;;;;;;;22.56;74.44;101545.13;4999643;28;20061;-66
2023/06/22 08:33:45;;;;;;;20.55;17.33;;;;;;;22.47;73.70;101544.25;4987611;28;20030;-67
2023/06/22 08:36:12;;;;;;;20.27;15.60;;;;;;;22.42;74.12;101547.56;4987834;28;20054;-67
2023/06/22 08:38:38;;;;;;;23.20;14.38;;;;;;;22.49;73.58;101546.88;4988332;28;20046;-67
2023/06/22 08:41:04;;;;;;;20.58;15.75;;;;;;;22.50;73.74;101537.53;4986481;28;20513;-68
2023/06/22 08:43:29;;;;;;;21.13;15.35;;;;;;;22.56;73.73;101548.78;4986700;28;20022;-70
2023/06/22 08:45:54;;;;;;;18.48;15.10;;;;;;;22.59;73.24;101544.81;4986753;28;20047;-70
2023/06/22 08:48:20;;;;;;;17.90;15.77;;;;;;;22.67;74.39;101544.81;4988303;28;20034;-70
2023/06/22 08:50:45;;;;;;;19.80;16.15;;;;;;;22.59;71.61;101544.81;4990849;28;20046;-70
2023/06/22 08:53:10;;;;;;;18.33;14.27;;;;;;;22.63;73.73;101533.19;4990950;28;20019;-66
2023/06/22 08:55:36;;;;;;;21.10;15.98;;;;;;;22.60;72.68;101539.06;4990896;28;20042;-67
2023/06/22 08:58:01;;;;;;;22.35;16.08;;;;;;;22.48;72.71;101540.47;5020010;28;20037;-67
2023/06/22 09:00:29;;;;;;;20.15;15.55;;;;;;;22.41;72.20;101543.06;5008814;28;20512;-69
2023/06/22 09:02:58;;;;;;;18.75;13.70;;;;;;;22.44;73.77;101529.91;4989159;28;20483;-66
2023/06/22 09:05:25;;;;;;;19.88;14.18;;;;;;;22.47;72.96;101523.97;4990541;28;20038;-67
2023/06/22 09:07:51;;;;;;;21.40;14.73;;;;;;;22.41;71.76;101529.19;4990983;28;20429;-67
2023/06/22 09:10:16;;;;;;;18.63;14.80;;;;;;;22.50;71.90;101520.88;5009965;28;20053;-67
2023/06/22 09:12:42;;;;;;;18.60;15.07;;;;;;;22.52;72.66;101519.69;4995815;28;20112;-66
2023/06/22 09:15:08;;;;;;;14.63;12.50;;;;;;;22.61;73.48;101524.16;5008416;28;20037;-67
2023/06/22 09:17:34;;;;;;;19.35;13.40;;;;;;;22.70;72.84;101516.72;4993319;28;20398;-67
2023/06/22 09:19:59;;;;;;;16.38;13.23;;;;;;;22.70;71.98;101521.41;4990293;28;20565;-67
2023/06/22 09:22:28;;;;;;;20.50;13.20;;;;;;;22.62;69.97;101514.81;4990712;28;20038;-66
2023/06/22 09:24:54;;;;;;;14.48;11.13;;;;;;;22.52;69.13;101508.59;4990540;28;20181;-66
2023/06/22 09:27:20;;;;;;;17.63;11.70;;;;;;;22.49;68.41;101506.16;4987910;28;20544;-66
2023/06/22 09:29:45;;;;;;;19.13;11.52;;;;;;;22.48;67.61;101506.34;4989628;28;20063;-66
2023/06/22 09:32:10;;;;;;;15.43;10.85;;;;;;;22.49;67.91;101511.69;4991163;28;20031;-67
2023/06/22 09:34:36;;;;;;;13.95;10.32;;;;;;;22.52;68.44;101510.47;4988914;28;20042;-67
2023/06/22 09:37:01;;;;;;;18.17;10.05;;;;;;;22.60;68.66;101514.13;4990313;28;20085;-67
2023/06/22 09:39:27;;;;;;;15.18;10.90;;;;;;;22.63;69.45;101512.91;4989994;28;20041;-66
2023/06/22 09:41:52;;;;;;;15.23;10.70;;;;;;;22.61;68.53;101510.28;4989653;28;20042;-66
2023/06/22 09:44:18;;;;;;;15.50;11.43;;;;;;;22.67;67.45;101512.38;4988011;28;20396;-67
2023/06/22 09:46:43;;;;;;;14.95;11.40;;;;;;;22.62;65.15;101512.03;4997887;28;20030;-69
2023/06/22 09:49:09;;;;;;;13.63;10.63;;;;;;;22.57;66.15;101508.94;4990389;28;20046;-66
2023/06/22 09:51:34;;;;;;;13.15;11.07;;;;;;;22.60;66.13;101503.03;4989818;28;20038;-67
2023/06/22 09:53:59;;;;;;;15.65;11.30;;;;;;;22.57;65.68;101502.50;4990037;28;20042;-66
2023/06/22 09:56:28;;;;;;;15.40;11.10;;;;;;;22.52;65.16;101500.28;4989331;28;20118;-67
2023/06/22 09:58:53;;;;;;;12.73;11.13;;;;;;;22.51;66.54;101498.50;4987555;28;20030;-67
2023/06/22 10:01:20;;;;;;;14.48;11.48;;;;;;;22.53;65.70;101502.00;4995519;28;20408;-67
2023/06/22 10:03:46;;;;;;;15.55;11.32;;;;;;;22.54;65.54;101500.94;5009197;28;20037;-66
2023/06/22 10:06:11;;;;;;;16.45;11.50;;;;;;;22.53;69.05;101502.00;5005945;28;20038;-67
2023/06/22 10:08:36;;;;;;;17.83;12.63;;;;;;;22.50;65.64;101498.69;4989619;28;20018;-66
2023/06/22 10:11:03;;;;;;;16.45;11.25;;;;;;;22.52;65.35;101505.81;4988972;28;20293;-66
2023/06/22 10:13:29;;;;;;;18.13;12.40;;;;;;;22.49;65.59;101496.97;5006673;28;20061;-66
2023/06/22 10:15:54;;;;;;;16.95;12.05;;;;;;;22.47;65.67;101499.91;5008090;28;20131;-66
2023/06/22 10:18:20;;;;;;;16.77;13.07;;;;;;;22.47;66.89;101499.03;5007514;28;20038;-67
2023/06/22 10:20:51;;;;;;;16.88;10.73;;;;;;;22.51;66.60;101497.66;5008568;28;20045;-67
2023/06/22 10:23:16;;;;;;;16.85;12.90;;;;;;;22.52;66.90;101500.28;5008470;28;20041;-68
2023/06/22 10:25:42;;;;;;;17.52;12.30;;;;;;;22.55;67.25;101499.03;4998825;28;20030;-67
2023/06/22 10:28:07;;;;;;;17.92;12.82;;;;;;;22.51;66.46;101495.75;5002661;28;20121;-67
2023/06/22 10:30:32;;;;;;;17.35;13.07;;;;;;;22.49;69.82;101495.06;4988916;28;20046;-67
2023/06/22 10:32:58;;;;;;;14.23;12.68;;;;;;;22.49;70.32;101499.75;4987536;28;20038;-66
2023/06/22 10:35:23;;;;;;;18.92;12.18;;;;;;;22.55;71.80;101488.81;5004042;28;20500;-67
2023/06/22 10:37:49;;;;;;;19.67;13.43;;;;;;;22.57;69.71;101497.84;4988310;28;20540;-66
2023/06/22 10:40:16;;;;;;;16.63;12.15;;;;;;;22.61;69.59;101501.97;4989285;28;20038;-67
2023/06/22 10:42:43;;;;;;;16.60;13.07;;;;;;;22.68;72.42;101510.47;4987833;28;20030;-67
2023/06/22 10:45:09;;;;;;;16.33;12.45;;;;;;;22.73;72.62;101512.72;4988959;28;20110;-67
2023/06/22 10:47:34;;;;;;;17.27;13.85;;;;;;;22.72;72.14;101522.97;4989053;28;20030;-67
2023/06/22 10:50:01;;;;;;;18.75;14.65;;;;;;;22.72;72.61;101524.88;4988958;28;20383;-66
2023/06/22 10:52:26;;;;;;;19.10;14.65;;;;;;;22.70;75.38;101532.50;4988270;28;20132;-67
2023/06/22 10:54:52;;;;;;;18.58;14.80;;;;;;;22.74;73.29;101533.88;4989014;28;20522;-67
2023/06/22 10:57:17;;;;;;;20.75;15.00;;;;;;;22.73;73.86;101541.34;4987853;28;20042;-67
2023/06/22 10:59:43;;;;;;;20.30;15.88;;;;;;;22.68;78.26;101538.22;4987700;28;20497;-69
2023/06/22 11:02:08;;;;;;;18.55;14.75;;;;;;;22.61;77.18;101535.25;4989199;28;20402;-67
2023/06/22 11:04:34;;;;;;;18.50;13.75;;;;;;;22.59;77.67;101542.03;4988141;28;20042;-67
2023/06/22 11:06:59;;;;;;;22.50;15.43;;;;;;;22.56;77.03;101540.47;4988481;28;20038;-67
2023/06/22 11:09:24;;;;;;;26.08;16.55;;;;;;;22.49;79.68;101535.78;4986642;28;20029;-67
2023/06/22 11:11:54;;;;;;;23.02;15.45;;;;;;;22.35;77.87;101529.03;4986911;28;20030;-67